KBFL/BFL METAR and TAF weather

Enter ICAO airport designator
Station Type Date Time Source
KBFL METAR 2020/02/20 21:54 UTC NOAA

KBFL 202154Z VRB03KT 10SM CLR 24/M03 A3004 RMK AO2 SLP167 T02391028


Station Type Date Time Source
KBFL Decoded METAR 2020/02/20 21:54 UTC NOAA

BAKERSFIELD MEADOWS FIELD, CA, United States (KBFL) 35-26N 119-03W 151M
Feb 20, 2020 - 04:54 PM EST / 2020.02.20 2154 UTC
Wind: Variable at 3 MPH (3 KT):0
Visibility: 10 mile(s):0
Sky conditions: clear
Temperature: 75.0 F (23.9 C)
Dew Point: 27.0 F (-2.8 C)
Relative Humidity: 16%
Pressure (altimeter): 30.04 in. Hg (1017 hPa)
ob: KBFL 202154Z VRB03KT 10SM CLR 24/M03 A3004 RMK AO2 SLP167 T02391028
cycle: 22

Station Type Date Time Source
KBFL TAF 2020/02/20 18:30 UTC NOAA

TAF KBFL 201728Z 2018/2118 VRB04KT P6SM SKC
FM202200 13012G20KT P6SM SKC
FM210400 18010KT P6SM SCT250
FM211200 VRB06KT P6SM BKN250

Example: see airport list